createdAt,value
2018-08-25T00:00:14.829Z,1.47
2018-08-25T00:01:18.220Z,1.80
2018-08-25T00:02:21.621Z,1.30
2018-08-25T00:03:25.115Z,1.57
2018-08-25T00:04:28.506Z,1.50
2018-08-25T00:05:31.919Z,1.30
2018-08-25T00:06:35.318Z,1.63
2018-08-25T00:07:38.746Z,1.37
2018-08-25T00:08:42.201Z,1.37
2018-08-25T00:09:45.584Z,1.30
2018-08-25T00:10:48.989Z,1.50
2018-08-25T00:11:52.392Z,1.20
2018-08-25T00:12:55.811Z,1.37
2018-08-25T00:13:59.228Z,1.50
2018-08-25T00:15:02.629Z,1.60
2018-08-25T00:16:06.222Z,1.30
2018-08-25T00:17:09.658Z,1.13
2018-08-25T00:18:13.110Z,1.40
2018-08-25T00:19:16.596Z,1.73
2018-08-25T00:20:20.039Z,1.40
2018-08-25T00:21:23.500Z,1.30
2018-08-25T00:22:27.023Z,1.53
2018-08-25T00:23:30.395Z,1.67
2018-08-25T00:24:33.774Z,1.23
2018-08-25T00:25:37.183Z,1.30
2018-08-25T00:26:40.546Z,1.50
2018-08-25T00:27:43.933Z,1.40
2018-08-25T00:28:47.285Z,1.53
2018-08-25T00:29:50.719Z,1.20
2018-08-25T00:30:59.435Z,1.23
2018-08-25T00:32:02.838Z,1.20
2018-08-25T00:33:06.244Z,1.60
2018-08-25T00:34:09.657Z,1.20
2018-08-25T00:35:13.096Z,1.00
2018-08-25T00:36:16.496Z,1.60
2018-08-25T00:37:20.662Z,1.53
2018-08-25T00:38:24.084Z,1.70
2018-08-25T00:39:27.521Z,1.40
2018-08-25T00:40:30.913Z,1.07
2018-08-25T00:41:34.319Z,1.33
2018-08-25T00:42:37.780Z,1.23
2018-08-25T00:43:41.222Z,1.63
2018-08-25T00:44:44.690Z,1.27
2018-08-25T00:45:48.137Z,1.30
2018-08-25T00:46:51.536Z,1.40
2018-08-25T00:47:55.135Z,1.50
2018-08-25T00:48:58.564Z,1.17
2018-08-25T00:50:02.049Z,1.20
2018-08-25T00:51:05.718Z,1.10
2018-08-25T00:52:09.172Z,1.17
2018-08-25T00:53:12.560Z,1.27
2018-08-25T00:54:15.981Z,1.23
2018-08-25T00:55:19.457Z,1.30
2018-08-25T00:56:22.818Z,1.10
2018-08-25T00:57:26.242Z,1.40
2018-08-25T00:58:29.653Z,1.17
2018-08-25T00:59:33.065Z,0.90
2018-08-25T01:00:36.676Z,1.30
2018-08-25T01:01:40.122Z,1.00
2018-08-25T01:02:43.542Z,1.10
2018-08-25T01:03:47.027Z,1.50
2018-08-25T01:04:50.416Z,1.30
2018-08-25T01:05:53.870Z,1.57
2018-08-25T01:06:57.281Z,1.23
2018-08-25T01:08:00.759Z,1.40
2018-08-25T01:09:04.922Z,1.13
2018-08-25T01:10:08.364Z,1.20
2018-08-25T01:11:11.816Z,1.53
2018-08-25T01:12:15.222Z,1.00
2018-08-25T01:13:18.643Z,1.33
2018-08-25T01:14:22.076Z,1.00
2018-08-25T01:15:25.540Z,1.07
2018-08-25T01:16:28.936Z,1.20
2018-08-25T01:17:32.328Z,1.30
2018-08-25T01:18:35.744Z,1.33
2018-08-25T01:19:39.148Z,1.00
2018-08-25T01:20:42.544Z,0.90
2018-08-25T01:21:45.973Z,1.20
2018-08-25T01:22:49.350Z,0.90
2018-08-25T01:23:52.758Z,1.30
2018-08-25T01:24:56.151Z,0.90
2018-08-25T01:25:59.520Z,1.20
2018-08-25T01:27:02.979Z,0.90
2018-08-25T01:28:06.370Z,1.10
2018-08-25T01:29:09.973Z,1.03
2018-08-25T01:30:13.464Z,1.03
2018-08-25T01:31:16.834Z,1.37
2018-08-25T01:32:20.256Z,1.20
2018-08-25T01:33:24.166Z,1.07
2018-08-25T01:34:27.547Z,1.27
2018-08-25T01:35:30.960Z,1.17
2018-08-25T01:36:34.346Z,1.20
2018-08-25T01:37:37.787Z,1.00
2018-08-25T01:38:41.173Z,1.30
2018-08-25T01:39:44.575Z,1.77
2018-08-25T01:40:47.976Z,1.00
2018-08-25T01:41:51.436Z,1.30
2018-08-25T01:42:54.899Z,1.30
2018-08-25T01:43:58.260Z,1.30
2018-08-25T01:45:01.698Z,1.20
2018-08-25T01:46:05.148Z,1.10
2018-08-25T01:47:08.530Z,1.30
2018-08-25T01:48:12.013Z,1.23
2018-08-25T01:49:15.408Z,1.00
2018-08-25T01:50:18.807Z,1.20
2018-08-25T01:51:22.236Z,1.10
2018-08-25T01:52:25.633Z,0.90
2018-08-25T01:53:29.114Z,1.17
2018-08-25T01:54:32.538Z,0.90
2018-08-25T01:55:37.170Z,1.07
2018-08-25T01:56:40.564Z,1.10
2018-08-25T01:57:43.980Z,1.27
2018-08-25T01:58:47.411Z,1.10
2018-08-25T01:59:50.812Z,1.30
2018-08-25T02:00:54.228Z,1.00
2018-08-25T02:01:57.646Z,1.27
2018-08-25T02:03:01.082Z,1.00
2018-08-25T02:04:04.479Z,1.20
2018-08-25T02:05:07.905Z,1.27
2018-08-25T02:06:11.294Z,1.17
2018-08-25T02:07:14.672Z,0.97
2018-08-25T02:08:18.068Z,1.50
2018-08-25T02:09:21.459Z,1.67
2018-08-25T02:10:24.855Z,1.40
2018-08-25T02:11:28.236Z,1.27
2018-08-25T02:12:32.010Z,0.90
2018-08-25T02:13:35.414Z,1.33
2018-08-25T02:14:38.824Z,1.40
2018-08-25T02:15:42.227Z,1.10
2018-08-25T02:16:45.634Z,1.13
2018-08-25T02:17:49.234Z,1.10
2018-08-25T02:18:53.220Z,0.97
2018-08-25T02:19:56.772Z,0.87
2018-08-25T02:21:00.177Z,1.07
2018-08-25T02:22:03.603Z,1.30
2018-08-25T02:23:07.001Z,1.20
2018-08-25T02:24:10.435Z,1.10
2018-08-25T02:25:13.812Z,1.13
2018-08-25T02:26:17.176Z,1.20
2018-08-25T02:27:20.587Z,0.90
2018-08-25T02:28:24.183Z,1.20
2018-08-25T02:29:27.537Z,0.83
2018-08-25T02:30:30.917Z,0.93
2018-08-25T02:31:34.264Z,0.90
2018-08-25T02:32:37.663Z,1.20
2018-08-25T02:33:41.137Z,1.43
2018-08-25T02:34:44.704Z,1.10
2018-08-25T02:35:48.114Z,0.87
2018-08-25T02:36:51.515Z,1.00
2018-08-25T02:37:54.870Z,0.80
2018-08-25T02:38:58.266Z,1.10
2018-08-25T02:40:01.675Z,1.20
2018-08-25T02:41:05.065Z,0.80
2018-08-25T02:42:08.574Z,0.93
2018-08-25T02:43:12.050Z,0.90
2018-08-25T02:44:15.515Z,0.97
2018-08-25T02:45:19.011Z,1.10
2018-08-25T02:46:22.397Z,1.00
2018-08-25T02:47:25.832Z,1.00
2018-08-25T02:48:29.308Z,0.97
2018-08-25T02:49:32.678Z,1.33
2018-08-25T02:50:36.079Z,1.13
2018-08-25T02:51:39.502Z,1.20
2018-08-25T02:52:42.939Z,1.03
2018-08-25T02:53:46.329Z,1.30
2018-08-25T02:54:49.721Z,0.70
2018-08-25T02:55:53.163Z,1.07
2018-08-25T02:56:56.545Z,1.00
2018-08-25T02:57:59.944Z,1.07
2018-08-25T02:59:03.370Z,1.00
2018-08-25T03:00:06.853Z,1.20
2018-08-25T03:01:10.242Z,1.00
2018-08-25T03:02:13.662Z,1.40
2018-08-25T03:03:17.093Z,1.00
2018-08-25T03:04:20.518Z,0.87
2018-08-25T03:05:23.904Z,0.90
2018-08-25T03:06:27.312Z,0.90
2018-08-25T03:07:30.691Z,0.90
2018-08-25T03:08:34.092Z,1.10
2018-08-25T03:09:37.556Z,1.00
2018-08-25T03:10:40.972Z,0.90
2018-08-25T03:11:44.375Z,0.83
2018-08-25T03:12:47.741Z,0.97
2018-08-25T03:13:51.177Z,0.90
2018-08-25T03:14:54.883Z,1.10
2018-08-25T03:15:58.411Z,0.87
2018-08-25T03:17:01.789Z,1.10
2018-08-25T03:18:05.388Z,1.10
2018-08-25T03:19:08.774Z,1.20
2018-08-25T03:20:12.164Z,0.90
2018-08-25T03:21:15.556Z,1.07
2018-08-25T03:22:18.929Z,0.80
2018-08-25T03:23:22.429Z,1.00
2018-08-25T03:24:25.880Z,1.30
2018-08-25T03:25:29.338Z,1.10
2018-08-25T03:26:32.736Z,0.80
2018-08-25T03:27:36.150Z,1.20
2018-08-25T03:28:39.584Z,1.00
2018-08-25T03:29:42.940Z,0.93
2018-08-25T03:30:46.335Z,1.17
2018-08-25T03:31:49.727Z,0.80
2018-08-25T03:32:53.128Z,1.00
2018-08-25T03:33:56.572Z,1.00
2018-08-25T03:34:59.968Z,0.90
2018-08-25T03:36:03.382Z,1.00
2018-08-25T03:37:06.796Z,1.00
2018-08-25T03:38:10.405Z,0.80
2018-08-25T03:39:13.788Z,1.00
2018-08-25T03:40:17.405Z,1.00
2018-08-25T03:41:20.818Z,0.90
2018-08-25T03:42:24.206Z,0.93
2018-08-25T03:43:27.597Z,1.17
2018-08-25T03:44:30.994Z,0.87
2018-08-25T03:45:34.408Z,1.00
2018-08-25T03:46:37.836Z,0.93
2018-08-25T03:47:41.217Z,0.83
2018-08-25T03:48:44.614Z,1.40
2018-08-25T03:49:48.000Z,0.90
2018-08-25T03:50:51.426Z,0.60
2018-08-25T03:51:54.856Z,1.00
2018-08-25T03:52:58.226Z,1.17
2018-08-25T03:54:01.688Z,0.90
2018-08-25T03:55:05.106Z,1.00
2018-08-25T03:56:08.699Z,0.90
2018-08-25T03:57:12.127Z,0.70
2018-08-25T03:58:15.541Z,1.10
2018-08-25T03:59:18.967Z,0.80
2018-08-25T04:00:23.389Z,0.90
2018-08-25T04:01:26.885Z,0.80
2018-08-25T04:02:30.242Z,0.90
2018-08-25T04:03:33.668Z,0.90
2018-08-25T04:04:37.074Z,0.90
2018-08-25T04:05:40.473Z,1.13
2018-08-25T04:06:43.892Z,0.90
2018-08-25T04:07:47.290Z,0.97
2018-08-25T04:08:50.659Z,0.83
2018-08-25T04:09:54.064Z,0.90
2018-08-25T04:10:57.483Z,0.93
2018-08-25T04:12:00.908Z,0.77
2018-08-25T04:13:04.332Z,1.20
2018-08-25T04:14:08.691Z,1.00
2018-08-25T04:15:12.035Z,0.90
2018-08-25T04:16:15.426Z,0.90
2018-08-25T04:17:19.024Z,0.70
2018-08-25T04:18:22.439Z,1.00
2018-08-25T04:19:25.936Z,0.93
2018-08-25T04:20:29.374Z,0.90
2018-08-25T04:21:32.811Z,0.90
2018-08-25T04:22:36.234Z,0.90
2018-08-25T04:23:39.628Z,0.83
2018-08-25T04:24:43.005Z,0.80
2018-08-25T04:25:46.385Z,0.97
2018-08-25T04:26:49.780Z,1.20
2018-08-25T04:27:53.385Z,0.80
2018-08-25T04:28:56.770Z,0.90
2018-08-25T04:30:00.161Z,0.80
2018-08-25T04:31:03.513Z,0.87
2018-08-25T04:32:07.049Z,0.70
2018-08-25T04:33:10.476Z,0.90
2018-08-25T04:34:13.856Z,1.13
2018-08-25T04:35:17.288Z,1.03
2018-08-25T04:36:20.661Z,0.90
2018-08-25T04:37:24.082Z,0.90
2018-08-25T04:38:27.478Z,0.90
2018-08-25T04:39:30.894Z,0.83
2018-08-25T04:40:34.307Z,0.80
2018-08-25T04:41:37.748Z,1.10
2018-08-25T04:42:41.168Z,0.80
2018-08-25T04:43:44.578Z,0.80
2018-08-25T04:44:47.986Z,1.10
2018-08-25T04:45:51.451Z,1.10
2018-08-25T04:46:54.834Z,0.90
2018-08-25T04:47:58.214Z,1.10
2018-08-25T04:49:01.602Z,0.90
2018-08-25T04:50:05.341Z,0.80
2018-08-25T04:51:08.724Z,0.97
2018-08-25T04:52:12.161Z,0.90
2018-08-25T04:53:15.581Z,1.00
2018-08-25T04:54:18.955Z,1.20
2018-08-25T04:55:22.352Z,0.97
2018-08-25T04:56:25.769Z,0.93
2018-08-25T04:57:29.196Z,1.00
2018-08-25T04:58:32.578Z,0.80
2018-08-25T04:59:36.000Z,1.37
2018-08-25T05:00:39.421Z,0.80
2018-08-25T05:01:42.863Z,1.10
2018-08-25T05:02:46.358Z,1.37
2018-08-25T05:03:49.752Z,1.00
2018-08-25T05:04:53.190Z,1.07
2018-08-25T05:05:56.671Z,0.77
2018-08-25T05:07:00.099Z,0.90
2018-08-25T05:08:03.691Z,1.03
2018-08-25T05:09:09.253Z,0.70
2018-08-25T05:10:12.676Z,1.13
2018-08-25T05:11:16.094Z,0.90
2018-08-25T05:12:19.580Z,1.10
2018-08-25T05:13:22.990Z,0.73
2018-08-25T05:14:26.403Z,1.00
2018-08-25T05:15:29.805Z,1.00
2018-08-25T05:16:33.182Z,0.93
2018-08-25T05:17:36.695Z,0.90
2018-08-25T05:18:40.065Z,0.90
2018-08-25T05:19:43.470Z,0.80
2018-08-25T05:20:46.833Z,1.53
2018-08-25T05:21:50.436Z,1.10
2018-08-25T05:22:53.801Z,1.20
2018-08-25T05:23:57.243Z,1.10
2018-08-25T05:25:00.680Z,1.27
2018-08-25T05:26:04.069Z,0.90
2018-08-25T05:27:07.467Z,1.00
2018-08-25T05:28:10.866Z,0.80
2018-08-25T05:29:14.248Z,0.87
2018-08-25T05:30:17.648Z,1.00
2018-08-25T05:31:21.095Z,1.13
2018-08-25T05:32:24.522Z,0.90
2018-08-25T05:33:27.935Z,1.10
2018-08-25T05:34:31.347Z,1.00
2018-08-25T05:35:34.728Z,1.10
2018-08-25T05:36:38.170Z,0.83
2018-08-25T05:37:41.611Z,1.20
2018-08-25T05:38:45.013Z,1.10
2018-08-25T05:39:48.389Z,0.70
2018-08-25T05:40:51.843Z,0.90
2018-08-25T05:41:57.871Z,0.97
2018-08-25T05:43:02.143Z,1.00
2018-08-25T05:44:06.571Z,1.10
2018-08-25T05:45:11.118Z,0.80
2018-08-25T05:46:15.161Z,1.00
2018-08-25T05:47:18.598Z,1.30
2018-08-25T05:48:22.058Z,0.90
2018-08-25T05:49:25.482Z,1.10
2018-08-25T05:50:28.957Z,1.20
2018-08-25T05:51:32.378Z,1.03
2018-08-25T05:52:35.794Z,1.10
2018-08-25T05:53:39.168Z,1.17
2018-08-25T05:54:42.600Z,1.10
2018-08-25T05:55:45.970Z,1.20
2018-08-25T05:56:49.463Z,1.00
2018-08-25T05:57:52.856Z,1.20
2018-08-25T05:58:56.253Z,1.03
2018-08-25T05:59:59.652Z,1.13
2018-08-25T06:01:03.099Z,1.10
2018-08-25T06:02:06.546Z,1.50
2018-08-25T06:03:09.937Z,1.10
2018-08-25T06:04:13.293Z,1.17
2018-08-25T06:05:16.681Z,1.30
2018-08-25T06:06:20.069Z,1.13
2018-08-25T06:07:23.513Z,1.27
2018-08-25T06:08:26.894Z,1.10
2018-08-25T06:09:30.315Z,0.73
2018-08-25T06:10:33.747Z,1.10
2018-08-25T06:11:37.159Z,1.00
2018-08-25T06:12:40.573Z,1.17
2018-08-25T06:13:43.951Z,0.93
2018-08-25T06:14:47.369Z,0.93
2018-08-25T06:15:50.779Z,1.03
2018-08-25T06:16:54.165Z,0.90
2018-08-25T06:17:57.664Z,1.00
2018-08-25T06:19:01.304Z,0.90
2018-08-25T06:20:04.840Z,1.23
2018-08-25T06:21:08.339Z,1.00
2018-08-25T06:22:11.729Z,0.90
2018-08-25T06:23:15.134Z,1.23
2018-08-25T06:24:18.516Z,1.00
2018-08-25T06:25:21.888Z,1.17
2018-08-25T06:26:25.281Z,1.20
2018-08-25T06:27:28.702Z,0.97
2018-08-25T06:28:32.118Z,1.10
2018-08-25T06:29:35.565Z,1.00
2018-08-25T06:30:39.006Z,1.20
2018-08-25T06:31:42.387Z,0.93
2018-08-25T06:32:45.907Z,1.53
2018-08-25T06:33:49.353Z,1.10
2018-08-25T06:34:52.940Z,0.97
2018-08-25T06:35:56.391Z,1.00
2018-08-25T06:36:59.782Z,0.90
2018-08-25T06:38:03.189Z,1.30
2018-08-25T06:39:08.467Z,1.00
2018-08-25T06:40:11.854Z,1.30
2018-08-25T06:41:15.251Z,1.20
2018-08-25T06:42:18.628Z,1.00
2018-08-25T06:43:22.044Z,0.80
2018-08-25T06:44:25.539Z,1.50
2018-08-25T06:45:28.902Z,1.30
2018-08-25T06:46:32.304Z,1.10
2018-08-25T06:47:35.701Z,1.40
2018-08-25T06:48:40.574Z,1.13
2018-08-25T06:49:44.010Z,1.37
2018-08-25T06:50:47.424Z,1.30
2018-08-25T06:51:50.816Z,1.20
2018-08-25T06:52:54.288Z,1.50
2018-08-25T06:53:57.752Z,1.20
2018-08-25T06:55:01.151Z,1.40
2018-08-25T06:56:04.576Z,1.17
2018-08-25T06:57:07.956Z,1.50
2018-08-25T06:58:11.332Z,1.50
2018-08-25T06:59:14.741Z,1.30
2018-08-25T07:00:18.172Z,1.60
2018-08-25T07:01:21.707Z,1.43
2018-08-25T07:02:25.144Z,1.43
2018-08-25T07:03:28.750Z,1.90
2018-08-25T07:04:34.105Z,1.67
2018-08-25T07:06:46.927Z,2.30
2018-08-25T07:07:50.532Z,2.00
2018-08-25T07:08:53.995Z,1.97
2018-08-25T07:09:57.404Z,1.60
2018-08-25T07:11:00.824Z,2.40
2018-08-25T07:12:04.451Z,1.77
2018-08-25T07:13:07.828Z,1.60
2018-08-25T07:14:11.710Z,1.80
2018-08-25T07:15:15.088Z,1.90
2018-08-25T07:16:18.520Z,1.53
2018-08-25T07:17:22.174Z,2.20
2018-08-25T07:18:25.581Z,2.17
2018-08-25T07:19:29.022Z,2.53
2018-08-25T07:20:32.377Z,2.37
2018-08-25T07:21:35.799Z,2.87
2018-08-25T07:22:39.218Z,2.00
2018-08-25T07:23:42.662Z,2.27
2018-08-25T07:24:46.108Z,2.30
2018-08-25T07:25:49.670Z,2.40
2018-08-25T07:26:53.095Z,2.47
2018-08-25T07:27:56.588Z,2.73
2018-08-25T07:29:00.025Z,2.27
2018-08-25T07:30:03.498Z,1.90
2018-08-25T07:31:06.896Z,2.30
2018-08-25T07:32:10.352Z,2.47
2018-08-25T07:33:13.723Z,2.10
2018-08-25T07:34:17.121Z,1.80
2018-08-25T07:35:20.506Z,2.17
2018-08-25T07:36:23.948Z,2.00
2018-08-25T07:37:27.416Z,2.23
2018-08-25T07:38:30.797Z,1.97
2018-08-25T07:39:34.230Z,1.80
2018-08-25T07:40:37.627Z,2.27
2018-08-25T07:41:41.406Z,1.77
2018-08-25T07:42:44.921Z,1.77
2018-08-25T07:43:48.282Z,1.80
2018-08-25T07:44:51.711Z,1.80
2018-08-25T07:45:55.112Z,2.20
2018-08-25T07:46:58.507Z,2.20
2018-08-25T07:48:01.952Z,2.10
2018-08-25T07:49:05.344Z,2.33
2018-08-25T07:50:09.407Z,2.63
2018-08-25T07:51:13.064Z,2.20
2018-08-25T07:52:16.448Z,2.60
2018-08-25T07:53:19.849Z,1.80
2018-08-25T07:54:23.362Z,1.93
2018-08-25T07:55:26.793Z,2.23
2018-08-25T07:56:30.294Z,2.50
2018-08-25T07:57:33.705Z,2.40
2018-08-25T07:58:37.200Z,2.23
2018-08-25T07:59:40.717Z,2.07
2018-08-25T08:00:44.163Z,2.00
2018-08-25T08:01:47.735Z,2.07
2018-08-25T08:02:51.197Z,2.10
2018-08-25T08:03:54.670Z,2.27
2018-08-25T08:04:58.043Z,1.77
2018-08-25T08:06:01.481Z,1.90
2018-08-25T08:07:04.909Z,2.00
2018-08-25T08:08:08.336Z,1.93
2018-08-25T08:09:12.055Z,2.00
2018-08-25T08:10:15.456Z,1.83
2018-08-25T08:11:18.881Z,1.83
2018-08-25T08:12:22.300Z,1.90
2018-08-25T08:13:25.697Z,2.00
2018-08-25T08:14:29.189Z,2.13
2018-08-25T08:15:32.714Z,1.87
2018-08-25T08:16:38.014Z,2.20
2018-08-25T08:17:42.432Z,1.90
2018-08-25T08:18:46.022Z,2.10
2018-08-25T08:19:49.993Z,2.40
2018-08-25T08:20:58.424Z,2.37
2018-08-25T08:22:05.371Z,2.30
2018-08-25T08:23:12.525Z,2.10
2018-08-25T08:24:21.413Z,2.50
2018-08-25T08:25:30.176Z,3.37
2018-08-25T08:26:37.623Z,4.13
2018-08-25T08:27:44.023Z,3.10
2018-08-25T08:28:50.797Z,3.00
2018-08-25T08:29:57.822Z,3.87
2018-08-25T08:31:04.296Z,5.83
2018-08-25T08:32:11.874Z,5.67
2018-08-25T08:33:18.559Z,5.70
2018-08-25T08:34:25.065Z,4.33
2018-08-25T08:35:31.649Z,4.50
2018-08-25T08:36:38.448Z,3.67
2018-08-25T08:37:45.114Z,3.90
2018-08-25T08:38:54.286Z,3.20
2018-08-25T08:39:57.730Z,3.37
2018-08-25T08:41:01.140Z,3.37
2018-08-25T08:42:04.687Z,4.33
2018-08-25T08:43:08.069Z,3.80
2018-08-25T08:44:11.449Z,3.70
2018-08-25T08:45:14.821Z,3.50
2018-08-25T08:46:23.741Z,3.73
2018-08-25T08:47:27.166Z,3.20
2018-08-25T08:48:30.637Z,3.47
2018-08-25T08:49:46.307Z,3.10
2018-08-25T08:50:37.604Z,3.00
2018-08-25T08:51:40.990Z,3.80
2018-08-25T08:52:44.346Z,2.93
2018-08-25T08:53:47.736Z,3.20
2018-08-25T08:54:51.181Z,3.20
2018-08-25T08:55:54.675Z,2.63
2018-08-25T08:56:58.072Z,2.70
2018-08-25T08:58:01.472Z,3.13
2018-08-25T08:59:04.996Z,2.73
2018-08-25T09:00:08.630Z,3.40
2018-08-25T09:01:12.072Z,2.30
2018-08-25T09:02:15.628Z,2.90
2018-08-25T09:03:19.041Z,2.87
2018-08-25T09:04:22.460Z,2.50
2018-08-25T09:05:26.304Z,3.07
2018-08-25T09:06:29.754Z,2.70
2018-08-25T09:07:33.152Z,3.10
2018-08-25T09:08:36.627Z,3.93
2018-08-25T09:09:40.063Z,5.37
2018-08-25T09:10:43.619Z,15.57
2018-08-25T09:11:47.043Z,13.90
2018-08-25T09:12:50.609Z,16.73
2018-08-25T09:13:54.208Z,16.97
2018-08-25T09:14:57.644Z,17.90
2018-08-25T09:16:01.170Z,16.00
2018-08-25T09:17:04.538Z,16.57
2018-08-25T09:18:08.194Z,16.07
2018-08-25T09:19:11.818Z,16.33
2018-08-25T09:20:15.323Z,16.70
2018-08-25T09:21:19.441Z,18.20
2018-08-25T09:22:22.872Z,19.30
2018-08-25T09:23:26.278Z,17.80
2018-08-25T09:24:29.759Z,16.70
2018-08-25T09:25:33.190Z,15.80
2018-08-25T09:26:36.744Z,14.80
2018-08-25T09:27:40.160Z,14.57
2018-08-25T09:28:43.570Z,15.17
2018-08-25T09:29:47.118Z,15.53
2018-08-25T09:30:50.516Z,14.87
2018-08-25T09:31:53.990Z,15.30
2018-08-25T09:32:57.404Z,15.67
2018-08-25T09:34:00.807Z,14.20
2018-08-25T09:35:04.219Z,13.10
2018-08-25T09:36:07.648Z,13.70
2018-08-25T09:37:11.036Z,15.10
2018-08-25T09:38:14.412Z,13.53
2018-08-25T09:39:17.869Z,13.03
2018-08-25T09:40:21.286Z,12.30
2018-08-25T09:41:24.737Z,13.37
2018-08-25T09:42:28.356Z,13.60
2018-08-25T09:43:31.774Z,12.90
2018-08-25T09:44:35.221Z,12.87
2018-08-25T09:45:38.631Z,12.20
2018-08-25T09:46:42.178Z,13.53
2018-08-25T09:47:45.536Z,12.67
2018-08-25T09:48:49.155Z,14.03
2018-08-25T09:49:52.625Z,12.50
2018-08-25T09:50:56.048Z,11.77
2018-08-25T09:51:59.559Z,12.03
2018-08-25T09:53:03.074Z,12.50
2018-08-25T09:54:06.488Z,11.57
2018-08-25T09:55:09.842Z,12.60
2018-08-25T09:56:13.264Z,11.53
2018-08-25T09:57:16.731Z,11.10
2018-08-25T09:58:20.183Z,11.40
2018-08-25T09:59:23.673Z,12.00
2018-08-25T10:00:27.377Z,11.93
2018-08-25T10:01:32.423Z,11.53
2018-08-25T10:02:35.841Z,11.70
2018-08-25T10:03:39.240Z,9.87
2018-08-25T10:04:42.628Z,10.93
2018-08-25T10:05:46.036Z,11.50
2018-08-25T10:06:49.473Z,10.60
2018-08-25T10:07:52.942Z,10.53
2018-08-25T10:08:56.393Z,10.20
2018-08-25T10:09:59.819Z,10.43
2018-08-25T10:11:03.260Z,10.57
2018-08-25T10:12:06.643Z,10.50
2018-08-25T10:13:10.067Z,9.63
2018-08-25T10:14:13.553Z,10.30
2018-08-25T10:15:17.022Z,11.00
2018-08-25T10:16:20.464Z,9.80
2018-08-25T10:17:23.991Z,10.00
2018-08-25T10:18:27.438Z,10.23
2018-08-25T10:19:30.825Z,9.33
2018-08-25T10:20:34.224Z,9.80
2018-08-25T10:21:37.662Z,10.17
2018-08-25T10:22:41.086Z,10.17
2018-08-25T10:23:44.505Z,9.60
2018-08-25T10:24:47.915Z,9.47
2018-08-25T10:25:51.328Z,10.13
2018-08-25T10:26:54.731Z,9.40
2018-08-25T10:27:58.369Z,9.03
2018-08-25T10:29:01.842Z,9.17
2018-08-25T10:30:05.806Z,8.50
2018-08-25T10:31:09.174Z,8.80
2018-08-25T10:32:12.592Z,8.60
2018-08-25T10:33:15.995Z,8.80
2018-08-25T10:34:19.419Z,8.67
2018-08-25T10:35:23.548Z,9.20
2018-08-25T10:36:26.985Z,8.30
2018-08-25T10:37:30.635Z,8.47
2018-08-25T10:38:34.043Z,9.10
2018-08-25T10:39:37.466Z,9.10
2018-08-25T10:40:40.901Z,8.73
2018-08-25T10:41:44.395Z,8.80
2018-08-25T10:42:47.708Z,7.53
2018-08-25T10:43:51.190Z,8.50
2018-08-25T10:44:54.689Z,7.90
2018-08-25T10:45:58.092Z,7.93
2018-08-25T10:47:01.537Z,8.17
2018-08-25T10:48:05.078Z,7.90
2018-08-25T10:49:08.925Z,8.97
2018-08-25T10:50:12.608Z,8.53
2018-08-25T10:51:16.084Z,8.73
2018-08-25T10:52:19.673Z,7.40
2018-08-25T10:53:23.122Z,7.30
2018-08-25T10:54:26.538Z,7.57
2018-08-25T10:55:30.270Z,7.90
2018-08-25T10:56:33.727Z,8.03
2018-08-25T10:57:37.180Z,8.17
2018-08-25T10:58:40.581Z,7.10
2018-08-25T10:59:43.973Z,7.67
2018-08-25T11:00:47.612Z,7.30
2018-08-25T11:01:50.839Z,7.47
2018-08-25T11:02:54.269Z,7.10
2018-08-25T11:03:57.719Z,7.27
2018-08-25T11:05:01.120Z,6.90
2018-08-25T11:06:04.529Z,7.07
2018-08-25T11:07:07.992Z,7.70
2018-08-25T11:08:11.428Z,6.57
2018-08-25T11:09:15.106Z,7.27
2018-08-25T11:10:18.488Z,7.30
2018-08-25T11:11:21.900Z,7.00
2018-08-25T11:12:25.518Z,7.40
2018-08-25T11:13:29.295Z,6.87
2018-08-25T11:14:32.860Z,6.60
2018-08-25T11:15:36.286Z,7.10
2018-08-25T11:16:39.835Z,6.57
2018-08-25T11:17:43.247Z,6.43
2018-08-25T11:18:46.640Z,6.30
2018-08-25T11:19:50.018Z,6.80
2018-08-25T11:20:53.434Z,6.37
2018-08-25T11:21:56.872Z,6.97
2018-08-25T11:23:00.333Z,6.70
2018-08-25T11:24:03.769Z,6.93
2018-08-25T11:25:07.203Z,6.70
2018-08-25T11:26:10.604Z,6.90
2018-08-25T11:27:14.021Z,6.30
2018-08-25T11:28:17.444Z,6.40
2018-08-25T11:29:20.956Z,6.00
2018-08-25T11:30:24.425Z,6.70
2018-08-25T11:31:27.814Z,6.30
2018-08-25T11:32:31.252Z,6.47
2018-08-25T11:33:34.665Z,6.37
2018-08-25T11:34:38.106Z,6.20
2018-08-25T11:35:41.527Z,6.10
2018-08-25T11:36:44.996Z,6.37
2018-08-25T11:37:48.546Z,5.70
2018-08-25T11:38:52.037Z,5.83
2018-08-25T11:39:55.473Z,6.43
2018-08-25T11:40:58.905Z,5.60
2018-08-25T11:42:02.308Z,6.20
2018-08-25T11:43:05.869Z,5.60
2018-08-25T11:44:09.369Z,6.60
2018-08-25T11:45:12.988Z,5.60
2018-08-25T11:46:16.385Z,5.63
2018-08-25T11:47:19.749Z,6.47
2018-08-25T11:48:23.169Z,5.70
2018-08-25T11:49:26.621Z,5.50
2018-08-25T11:50:30.052Z,5.63
2018-08-25T11:51:33.562Z,5.27
2018-08-25T11:52:36.936Z,5.70
2018-08-25T11:53:40.335Z,5.50
2018-08-25T11:54:44.095Z,5.60
2018-08-25T11:55:47.508Z,5.10
2018-08-25T11:56:50.924Z,5.20
2018-08-25T11:57:54.506Z,5.93
2018-08-25T11:58:58.018Z,5.90
2018-08-25T12:00:01.397Z,5.73
2018-08-25T12:01:04.979Z,5.17
2018-08-25T12:02:08.497Z,5.40
2018-08-25T12:03:11.896Z,5.23
2018-08-25T12:04:15.274Z,5.20
2018-08-25T12:05:18.703Z,5.60
2018-08-25T12:06:22.724Z,5.40
2018-08-25T12:07:26.256Z,5.33
2018-08-25T12:08:29.662Z,4.83
2018-08-25T12:09:33.150Z,5.10
2018-08-25T12:10:36.707Z,5.23
2018-08-25T12:11:40.436Z,5.20
2018-08-25T12:12:43.903Z,4.90
2018-08-25T12:13:47.314Z,5.43
2018-08-25T12:14:50.736Z,4.43
2018-08-25T12:15:54.303Z,5.10
2018-08-25T12:16:57.754Z,4.70
2018-08-25T12:18:01.190Z,4.10
2018-08-25T12:19:04.637Z,4.67
2018-08-25T12:20:08.048Z,4.63
2018-08-25T12:21:11.482Z,5.30
2018-08-25T12:22:14.935Z,4.80
2018-08-25T12:23:18.327Z,5.23
2018-08-25T12:24:21.693Z,4.50
2018-08-25T12:25:25.100Z,5.40
2018-08-25T12:26:28.554Z,4.40
2018-08-25T12:27:32.090Z,4.37
2018-08-25T12:28:35.688Z,4.53
2018-08-25T12:29:39.095Z,5.30
2018-08-25T12:30:42.598Z,4.40
2018-08-25T12:31:45.987Z,4.80
2018-08-25T12:32:49.360Z,4.57
2018-08-25T12:33:52.761Z,4.67
2018-08-25T12:34:56.262Z,4.63
2018-08-25T12:35:59.738Z,3.97
2018-08-25T12:37:03.140Z,3.90
2018-08-25T12:38:06.583Z,4.80
2018-08-25T12:39:11.223Z,4.77
2018-08-25T12:40:14.590Z,4.50
2018-08-25T12:41:18.327Z,4.03
2018-08-25T12:42:21.806Z,4.93
2018-08-25T12:43:25.223Z,5.03
2018-08-25T12:44:28.749Z,4.17
2018-08-25T12:45:32.170Z,3.87
2018-08-25T12:46:35.618Z,4.60
2018-08-25T12:47:39.052Z,3.80
2018-08-25T12:48:42.493Z,4.67
2018-08-25T12:49:45.870Z,4.63
2018-08-25T12:50:49.402Z,4.23
2018-08-25T12:51:53.056Z,3.70
2018-08-25T12:52:56.576Z,4.27
2018-08-25T12:54:00.060Z,4.07
2018-08-25T12:55:03.444Z,4.10
2018-08-25T12:56:07.041Z,4.23
2018-08-25T12:57:10.499Z,4.33
2018-08-25T12:58:13.958Z,4.40
2018-08-25T12:59:17.325Z,3.73
2018-08-25T13:00:20.743Z,4.33
2018-08-25T13:01:24.284Z,3.60
2018-08-25T13:02:27.705Z,4.23
2018-08-25T13:03:31.147Z,3.70
2018-08-25T13:04:34.529Z,4.00
2018-08-25T13:05:37.927Z,3.97
2018-08-25T13:06:41.332Z,3.93
2018-08-25T13:07:44.727Z,3.50
2018-08-25T13:08:48.126Z,3.67
2018-08-25T13:09:51.533Z,3.70
2018-08-25T13:10:55.033Z,3.57
2018-08-25T13:11:58.447Z,3.77
2018-08-25T13:13:01.949Z,3.50
2018-08-25T13:14:05.570Z,3.60
2018-08-25T13:15:08.981Z,3.50
2018-08-25T13:16:12.357Z,3.70
2018-08-25T13:17:15.739Z,3.13
2018-08-25T13:18:19.221Z,3.47
2018-08-25T13:19:22.685Z,4.17
2018-08-25T13:20:26.062Z,3.43
2018-08-25T13:21:29.539Z,4.30
2018-08-25T13:22:32.920Z,3.47
2018-08-25T13:23:36.326Z,3.57
2018-08-25T13:24:39.738Z,3.30
2018-08-25T13:25:43.137Z,3.13
2018-08-25T13:26:46.564Z,3.40
2018-08-25T13:27:49.981Z,3.60
2018-08-25T13:28:53.520Z,4.50
2018-08-25T13:29:56.939Z,3.67
2018-08-25T13:31:00.419Z,3.20
2018-08-25T13:32:03.757Z,3.23
2018-08-25T13:33:07.180Z,3.30
2018-08-25T13:34:10.589Z,3.57
2018-08-25T13:35:14.117Z,2.87
2018-08-25T13:36:17.518Z,3.40
2018-08-25T13:37:20.894Z,3.17
2018-08-25T13:38:24.282Z,4.00
2018-08-25T13:39:27.696Z,3.40
2018-08-25T13:40:31.130Z,3.67
2018-08-25T13:41:34.608Z,3.33
2018-08-25T13:42:38.021Z,3.03
2018-08-25T13:43:41.558Z,2.93
2018-08-25T13:44:44.985Z,3.37
2018-08-25T13:45:48.378Z,3.40
2018-08-25T13:46:51.819Z,3.70
2018-08-25T13:47:55.247Z,3.17
2018-08-25T13:48:58.781Z,3.90
2018-08-25T13:50:02.205Z,3.00
2018-08-25T13:51:05.724Z,3.00
2018-08-25T13:52:09.092Z,3.00
2018-08-25T13:53:12.525Z,3.37
2018-08-25T13:54:15.944Z,3.03
2018-08-25T13:55:19.417Z,3.60
2018-08-25T13:56:22.891Z,3.13
2018-08-25T13:57:26.342Z,3.30
2018-08-25T13:58:29.735Z,3.30
2018-08-25T13:59:33.122Z,2.93
2018-08-25T14:00:36.526Z,3.60
2018-08-25T14:01:39.952Z,3.20
2018-08-25T14:02:43.368Z,2.90
2018-08-25T14:03:46.745Z,3.43
2018-08-25T14:04:50.257Z,3.53